createdAt,value
2019-05-13T00:01:50.765Z,81.21
2019-05-13T00:04:25.357Z,80.86
2019-05-13T00:07:04.679Z,80.69
2019-05-13T00:09:37.770Z,80.46
2019-05-13T00:12:10.353Z,80.59
2019-05-13T00:14:43.460Z,80.83
2019-05-13T00:17:17.069Z,80.55
2019-05-13T00:19:49.625Z,80.45
2019-05-13T00:22:23.446Z,80.18
2019-05-13T00:24:54.432Z,80.64
2019-05-13T00:27:26.396Z,80.65
2019-05-13T00:29:58.461Z,80.93
2019-05-13T00:32:30.344Z,80.18
2019-05-13T00:35:03.959Z,79.95
2019-05-13T00:37:45.442Z,80.00
2019-05-13T00:40:17.480Z,79.58
2019-05-13T00:42:49.036Z,80.00
2019-05-13T00:45:21.064Z,79.86
2019-05-13T00:47:54.431Z,79.69
2019-05-13T00:50:26.277Z,79.81
2019-05-13T00:52:57.882Z,79.57
2019-05-13T00:55:31.054Z,79.74
2019-05-13T00:58:04.229Z,79.54
2019-05-13T01:00:35.803Z,79.27
2019-05-13T01:03:08.074Z,78.68
2019-05-13T01:05:39.894Z,78.98
2019-05-13T01:08:14.539Z,78.99
2019-05-13T01:10:48.956Z,78.83
2019-05-13T01:13:20.578Z,79.29
2019-05-13T01:15:54.193Z,79.82
2019-05-13T01:18:26.725Z,79.61
2019-05-13T01:20:58.425Z,80.00
2019-05-13T01:23:30.519Z,80.46
2019-05-13T01:26:03.901Z,80.28
2019-05-13T01:28:36.429Z,80.37
2019-05-13T01:31:10.234Z,80.04
2019-05-13T01:33:44.322Z,80.34
2019-05-13T01:36:17.117Z,81.24
2019-05-13T01:38:48.687Z,81.64
2019-05-13T01:41:20.188Z,81.28
2019-05-13T01:43:51.592Z,82.02
2019-05-13T01:46:25.946Z,81.79
2019-05-13T01:48:57.682Z,82.30
2019-05-13T01:51:30.007Z,81.78
2019-05-13T01:54:03.970Z,82.29
2019-05-13T01:56:35.831Z,81.71
2019-05-13T01:59:08.614Z,81.52
2019-05-13T02:01:40.125Z,81.58
2019-05-13T02:04:14.035Z,81.96
2019-05-13T02:06:44.911Z,81.57
2019-05-13T02:09:18.684Z,82.17
2019-05-13T02:11:53.821Z,81.19
2019-05-13T02:14:25.858Z,81.19
2019-05-13T02:16:59.787Z,80.24
2019-05-13T02:19:33.413Z,80.97
2019-05-13T02:22:06.396Z,80.78
2019-05-13T02:24:38.247Z,79.49
2019-05-13T02:27:09.809Z,79.27
2019-05-13T02:29:43.492Z,78.62
2019-05-13T02:32:16.219Z,75.88
2019-05-13T02:34:47.701Z,76.69
2019-05-13T02:37:22.879Z,77.87
2019-05-13T02:39:53.354Z,77.44
2019-05-13T02:42:24.917Z,78.10
2019-05-13T02:44:57.733Z,78.46
2019-05-13T02:47:33.097Z,79.27
2019-05-13T02:50:14.948Z,79.45
2019-05-13T02:52:48.032Z,79.37
2019-05-13T02:55:38.410Z,79.28
2019-05-13T02:58:12.401Z,79.18
2019-05-13T03:00:44.436Z,79.79
2019-05-13T03:03:17.771Z,79.68
2019-05-13T03:05:52.754Z,79.60
2019-05-13T03:08:39.866Z,80.23
2019-05-13T03:10:59.155Z,79.54
2019-05-13T03:13:32.763Z,78.42
2019-05-13T03:16:24.948Z,77.37
2019-05-13T03:18:56.673Z,77.60
2019-05-13T03:21:28.466Z,76.86
2019-05-13T03:24:03.044Z,76.60
2019-05-13T03:26:33.870Z,76.85
2019-05-13T03:29:05.468Z,77.71
2019-05-13T03:31:37.447Z,76.58
2019-05-13T03:34:08.680Z,75.73
2019-05-13T03:36:45.726Z,73.88
2019-05-13T03:39:16.562Z,74.05
2019-05-13T03:41:52.888Z,75.11
2019-05-13T03:44:26.624Z,75.67
2019-05-13T03:46:59.122Z,75.84
2019-05-13T03:49:34.018Z,76.39
2019-05-13T03:52:05.784Z,76.94
2019-05-13T03:54:37.628Z,77.17
2019-05-13T03:57:12.595Z,76.78
2019-05-13T03:59:44.277Z,77.12
2019-05-13T04:02:16.199Z,77.66
2019-05-13T04:04:53.421Z,78.16
2019-05-13T04:07:27.803Z,77.98
2019-05-13T04:10:03.300Z,78.55
2019-05-13T04:12:43.788Z,78.49
2019-05-13T04:15:17.787Z,78.85
2019-05-13T04:17:53.155Z,79.38
2019-05-13T04:20:26.059Z,79.09
2019-05-13T04:23:02.694Z,79.50
2019-05-13T04:25:33.089Z,79.33
2019-05-13T04:28:05.346Z,79.27
2019-05-13T04:30:36.954Z,79.38
2019-05-13T04:33:08.705Z,80.28
2019-05-13T04:35:42.548Z,79.81
2019-05-13T04:38:13.908Z,79.86
2019-05-13T04:40:45.859Z,79.78
2019-05-13T04:43:17.486Z,79.33
2019-05-13T04:45:52.239Z,79.49
2019-05-13T04:48:23.111Z,79.55
2019-05-13T04:50:54.927Z,80.33
2019-05-13T04:53:26.292Z,80.31
2019-05-13T04:56:03.622Z,79.67
2019-05-13T04:58:37.591Z,80.23
2019-05-13T05:01:48.801Z,79.07
2019-05-13T05:04:31.810Z,78.51
2019-05-13T05:07:37.039Z,78.39
2019-05-13T05:10:49.806Z,78.16
2019-05-13T05:13:46.403Z,76.57
2019-05-13T05:16:48.333Z,76.55
2019-05-13T05:19:46.687Z,74.40
2019-05-13T05:22:28.833Z,74.87
2019-05-13T05:25:42.327Z,75.45
2019-05-13T05:28:33.787Z,75.31
2019-05-13T05:31:25.661Z,73.86
2019-05-13T05:34:32.186Z,71.83
2019-05-13T05:37:28.446Z,72.91
2019-05-13T05:40:01.959Z,73.75
2019-05-13T05:42:42.980Z,73.63
2019-05-13T05:45:18.851Z,72.95
2019-05-13T05:47:52.347Z,72.98
2019-05-13T05:50:23.660Z,72.81
2019-05-13T05:52:57.279Z,73.45
2019-05-13T05:55:31.778Z,73.04
2019-05-13T05:58:04.514Z,72.57
2019-05-13T06:00:41.528Z,73.56
2019-05-13T06:03:14.009Z,74.34
2019-05-13T06:05:45.422Z,74.21
2019-05-13T06:08:18.359Z,74.55
2019-05-13T06:10:53.549Z,74.85
2019-05-13T06:13:23.400Z,74.87
2019-05-13T06:15:54.810Z,75.47
2019-05-13T06:18:26.185Z,75.68
2019-05-13T06:20:57.520Z,75.61
2019-05-13T06:23:33.559Z,75.01
2019-05-13T06:26:06.689Z,74.84
2019-05-13T06:28:38.549Z,75.51
2019-05-13T06:31:12.632Z,76.41
2019-05-13T06:33:43.449Z,76.26
2019-05-13T06:36:15.951Z,76.28
2019-05-13T06:38:51.163Z,76.67
2019-05-13T06:41:22.089Z,76.38
2019-05-13T06:43:55.670Z,76.45
2019-05-13T06:46:28.052Z,75.67
2019-05-13T06:48:59.395Z,75.54
2019-05-13T06:51:31.497Z,75.67
2019-05-13T06:54:03.485Z,75.19
2019-05-13T06:56:35.183Z,74.86
2019-05-13T06:59:11.896Z,74.71
2019-05-13T07:01:45.609Z,72.53
2019-05-13T07:04:21.934Z,73.31
2019-05-13T07:07:08.746Z,73.05
2019-05-13T07:09:32.000Z,73.18
2019-05-13T07:12:03.555Z,73.06
2019-05-13T07:14:35.843Z,73.86
2019-05-13T07:17:07.404Z,72.69
2019-05-13T07:19:41.408Z,72.97
2019-05-13T07:22:15.190Z,73.52
2019-05-13T07:24:47.176Z,72.31
2019-05-13T07:27:18.697Z,72.95
2019-05-13T07:29:51.505Z,73.21
2019-05-13T07:32:23.691Z,73.05
2019-05-13T07:34:57.235Z,73.57
2019-05-13T07:37:31.774Z,73.17
2019-05-13T07:40:13.639Z,72.74
2019-05-13T07:42:46.645Z,72.66
2019-05-13T07:45:18.396Z,71.05
2019-05-13T07:47:52.107Z,71.28
2019-05-13T07:50:26.753Z,70.88
2019-05-13T07:52:58.545Z,71.75
2019-05-13T07:55:31.706Z,71.38
2019-05-13T07:58:03.214Z,71.46
2019-05-13T08:00:35.146Z,70.70
2019-05-13T08:03:06.962Z,70.77
2019-05-13T08:05:38.608Z,70.44
2019-05-13T08:08:11.684Z,69.71
2019-05-13T08:10:46.271Z,70.12
2019-05-13T08:13:17.996Z,68.94
2019-05-13T08:15:49.397Z,68.91
2019-05-13T08:18:22.171Z,68.03
2019-05-13T08:20:55.399Z,67.01
2019-05-13T08:23:26.862Z,67.00
2019-05-13T08:25:58.848Z,67.33
2019-05-13T08:28:32.871Z,65.49
2019-05-13T08:31:04.307Z,66.51
2019-05-13T08:33:35.839Z,65.91
2019-05-13T08:36:07.306Z,65.54
2019-05-13T08:38:43.125Z,66.04
2019-05-13T08:41:18.908Z,65.34
2019-05-13T08:43:47.930Z,64.19
2019-05-13T08:46:21.688Z,64.61
2019-05-13T08:48:53.066Z,64.15
2019-05-13T08:51:24.498Z,64.69
2019-05-13T08:53:55.767Z,63.40
2019-05-13T08:56:27.317Z,62.69
2019-05-13T08:59:01.252Z,62.90
2019-05-13T09:01:34.847Z,62.80
2019-05-13T09:04:06.425Z,61.67
2019-05-13T09:06:38.156Z,62.14
2019-05-13T09:09:11.479Z,61.24
2019-05-13T09:11:46.534Z,60.38
2019-05-13T09:14:21.839Z,60.03
2019-05-13T09:16:52.793Z,60.59
2019-05-13T09:19:24.174Z,58.84
2019-05-13T09:21:55.577Z,60.02
2019-05-13T09:24:34.113Z,59.53
2019-05-13T09:27:01.925Z,58.87
2019-05-13T09:29:33.251Z,57.75
2019-05-13T09:32:04.828Z,57.89
2019-05-13T09:34:36.033Z,57.75
2019-05-13T09:37:07.459Z,56.46
2019-05-13T09:39:41.492Z,56.94
2019-05-13T09:42:13.035Z,57.17
2019-05-13T09:44:47.695Z,56.81
2019-05-13T09:47:21.534Z,55.51
2019-05-13T09:49:54.568Z,56.31
2019-05-13T09:52:26.421Z,56.12
2019-05-13T09:54:59.224Z,54.79
2019-05-13T09:57:32.167Z,55.31
2019-05-13T10:00:16.335Z,54.62
2019-05-13T10:02:51.760Z,55.24
2019-05-13T10:05:23.397Z,54.44
2019-05-13T10:07:56.730Z,55.24
2019-05-13T10:10:31.900Z,54.00
2019-05-13T10:13:11.996Z,52.23
2019-05-13T10:15:37.246Z,53.51
2019-05-13T10:18:12.638Z,54.38
2019-05-13T10:20:52.888Z,52.00
2019-05-13T10:23:27.365Z,51.37
2019-05-13T10:26:03.873Z,52.29
2019-05-13T10:28:36.114Z,50.75
2019-05-13T10:31:08.394Z,51.08
2019-05-13T10:33:41.998Z,51.29
2019-05-13T10:36:15.451Z,51.16
2019-05-13T10:38:47.134Z,50.69
2019-05-13T10:41:21.613Z,51.30
2019-05-13T10:43:53.041Z,50.74
2019-05-13T10:46:26.400Z,50.86
2019-05-13T10:49:01.929Z,49.89
2019-05-13T10:51:33.521Z,50.20
2019-05-13T10:54:04.936Z,49.54
2019-05-13T10:56:36.346Z,49.34
2019-05-13T10:59:12.372Z,49.70
2019-05-13T11:01:44.509Z,50.18
2019-05-13T11:04:16.928Z,50.31
2019-05-13T11:06:52.380Z,50.37
2019-05-13T11:09:24.772Z,50.59
2019-05-13T11:11:57.017Z,50.33
2019-05-13T11:14:28.466Z,50.70
2019-05-13T11:17:01.832Z,50.96
2019-05-13T11:19:37.105Z,50.42
2019-05-13T11:22:08.312Z,51.18
2019-05-13T11:24:42.860Z,51.24
2019-05-13T11:27:12.780Z,51.62
2019-05-13T11:29:45.164Z,51.58
2019-05-13T11:32:21.599Z,50.82
2019-05-13T11:34:53.343Z,50.29
2019-05-13T11:37:25.306Z,50.11
2019-05-13T11:39:56.382Z,49.94
2019-05-13T11:42:27.930Z,50.38
2019-05-13T11:45:01.455Z,50.02
2019-05-13T11:47:43.600Z,50.08
2019-05-13T11:50:16.739Z,50.00
2019-05-13T11:52:48.479Z,50.17
2019-05-13T11:55:23.003Z,49.68
2019-05-13T11:57:56.590Z,49.76
2019-05-13T12:01:06.824Z,50.04
2019-05-13T12:03:38.373Z,49.10
2019-05-13T12:06:09.973Z,49.49
2019-05-13T12:08:50.176Z,49.13
2019-05-13T12:11:16.622Z,49.60
2019-05-13T12:13:48.630Z,49.35
2019-05-13T12:16:22.878Z,49.31
2019-05-13T12:18:54.564Z,48.98
2019-05-13T12:21:26.215Z,49.04
2019-05-13T12:24:07.092Z,48.85
2019-05-13T12:26:33.397Z,49.03
2019-05-13T12:29:05.519Z,49.12
2019-05-13T12:31:40.692Z,48.50
2019-05-13T12:34:13.247Z,48.36
2019-05-13T12:36:49.516Z,48.40
2019-05-13T12:39:23.954Z,48.49
2019-05-13T12:41:54.377Z,48.80
2019-05-13T12:44:25.787Z,48.45
2019-05-13T12:46:57.567Z,47.98
2019-05-13T12:49:33.530Z,47.76
2019-05-13T12:52:05.195Z,48.19
2019-05-13T12:54:43.640Z,48.39
2019-05-13T12:57:17.433Z,48.95
2019-05-13T12:59:48.893Z,49.22
2019-05-13T13:02:22.596Z,48.74
2019-05-13T13:05:10.524Z,48.55
2019-05-13T13:07:26.940Z,49.61
2019-05-13T13:09:58.682Z,49.59
2019-05-13T13:12:35.987Z,49.61
2019-05-13T13:15:36.439Z,48.67
2019-05-13T13:17:47.033Z,49.77
2019-05-13T13:20:18.580Z,49.85
2019-05-13T13:22:50.255Z,50.05
2019-05-13T13:25:23.945Z,49.90
2019-05-13T13:28:15.229Z,49.54
2019-05-13T13:30:34.575Z,49.55
2019-05-13T13:33:03.065Z,49.86
2019-05-13T13:35:34.706Z,49.46
2019-05-13T13:38:09.201Z,49.69
2019-05-13T13:40:45.706Z,49.74
2019-05-13T13:43:15.917Z,49.26
2019-05-13T13:48:25.353Z,49.61
2019-05-13T13:50:56.198Z,49.61
2019-05-13T13:53:28.301Z,49.43
2019-05-13T13:56:02.171Z,49.73
2019-05-13T13:58:33.318Z,50.20
2019-05-13T14:01:12.325Z,49.86
2019-05-13T14:03:46.180Z,49.71
2019-05-13T14:07:20.568Z,49.96
2019-05-13T14:08:51.895Z,50.35
2019-05-13T14:11:23.997Z,50.97
2019-05-13T14:13:56.037Z,51.13
2019-05-13T14:16:32.498Z,51.08
2019-05-13T14:19:02.017Z,50.81
2019-05-13T14:21:34.260Z,50.69
2019-05-13T14:24:05.943Z,50.75
2019-05-13T14:26:39.171Z,50.35
2019-05-13T14:29:12.352Z,50.64
2019-05-13T14:31:45.235Z,49.86
2019-05-13T14:34:17.117Z,48.72
2019-05-13T14:36:48.811Z,48.50
2019-05-13T14:39:22.229Z,48.23
2019-05-13T14:41:53.659Z,48.35
2019-05-13T14:44:25.249Z,47.56
2019-05-13T14:46:58.161Z,48.40
2019-05-13T14:49:31.679Z,49.03
2019-05-13T14:52:03.373Z,48.97
2019-05-13T14:54:34.605Z,49.12
2019-05-13T14:57:11.700Z,49.25
2019-05-13T14:59:41.501Z,50.74
2019-05-13T15:02:13.082Z,51.16
2019-05-13T15:04:44.368Z,51.08
2019-05-13T15:07:15.840Z,51.00
2019-05-13T15:09:51.523Z,50.29
2019-05-13T15:12:23.713Z,50.75
2019-05-13T15:14:55.289Z,50.20
2019-05-13T15:17:26.512Z,49.31
2019-05-13T15:19:58.145Z,48.48
2019-05-13T15:22:32.828Z,48.23
2019-05-13T15:25:15.025Z,48.55
2019-05-13T15:27:46.524Z,47.43
2019-05-13T15:30:21.789Z,45.29
2019-05-13T15:32:54.091Z,44.89
2019-05-13T15:35:25.496Z,44.17
2019-05-13T15:37:57.966Z,44.03
2019-05-13T15:40:31.208Z,43.99
2019-05-13T15:43:04.726Z,44.17
2019-05-13T15:45:38.438Z,44.46
2019-05-13T15:48:11.570Z,44.73
2019-05-13T15:50:43.190Z,44.95
2019-05-13T15:53:14.747Z,45.38
2019-05-13T15:55:48.772Z,45.80
2019-05-13T15:58:37.687Z,46.17
2019-05-13T16:00:54.152Z,46.62
2019-05-13T16:03:26.618Z,47.16
2019-05-13T16:05:58.237Z,47.20
2019-05-13T16:08:32.035Z,47.96
2019-05-13T16:11:05.146Z,47.98
2019-05-13T16:13:37.591Z,48.56
2019-05-13T16:16:12.128Z,48.78
2019-05-13T16:18:45.442Z,49.53
2019-05-13T16:21:17.284Z,50.19
2019-05-13T16:23:51.400Z,50.74
2019-05-13T16:26:22.946Z,50.97
2019-05-13T16:28:54.488Z,51.61
2019-05-13T16:31:26.207Z,52.05
2019-05-13T16:33:57.551Z,52.40
2019-05-13T16:36:30.825Z,52.17
2019-05-13T16:39:06.126Z,51.97
2019-05-13T16:41:37.643Z,52.30
2019-05-13T16:44:11.642Z,52.24
2019-05-13T16:46:46.662Z,52.32
2019-05-13T16:49:21.153Z,52.82
2019-05-13T16:51:52.230Z,52.72
2019-05-13T16:54:24.844Z,52.50
2019-05-13T16:56:56.117Z,51.66
2019-05-13T16:59:27.881Z,51.64
2019-05-13T17:02:01.801Z,51.22
2019-05-13T17:04:33.444Z,51.38
2019-05-13T17:07:12.030Z,51.12
2019-05-13T17:09:43.654Z,51.34
2019-05-13T17:12:15.970Z,50.64
2019-05-13T17:14:47.682Z,51.26
2019-05-13T17:17:19.036Z,50.74
2019-05-13T17:19:53.600Z,51.00
2019-05-13T17:22:24.135Z,50.80
2019-05-13T17:24:55.630Z,50.76
2019-05-13T17:27:27.929Z,51.41
2019-05-13T17:30:02.217Z,51.39
2019-05-13T17:32:44.745Z,51.64
2019-05-13T17:35:18.204Z,52.23
2019-05-13T17:37:51.812Z,52.43
2019-05-13T17:40:23.580Z,52.22
2019-05-13T17:42:55.613Z,51.46
2019-05-13T17:45:27.354Z,52.29
2019-05-13T17:48:35.521Z,52.59
2019-05-13T17:51:07.633Z,53.27
2019-05-13T17:53:41.276Z,53.51
2019-05-13T17:56:12.963Z,53.81
2019-05-13T17:58:44.274Z,54.20
2019-05-13T18:01:16.099Z,54.57
2019-05-13T18:03:47.747Z,55.04
2019-05-13T18:06:19.325Z,54.62
2019-05-13T18:08:51.858Z,55.29
2019-05-13T18:11:23.496Z,54.95
2019-05-13T18:13:54.768Z,54.99
2019-05-13T18:16:26.989Z,54.77
2019-05-13T18:18:58.404Z,54.45
2019-05-13T18:21:31.869Z,54.88
2019-05-13T18:24:03.950Z,55.46
2019-05-13T18:26:35.734Z,55.64
2019-05-13T18:29:07.625Z,55.95
2019-05-13T18:31:41.810Z,56.49
2019-05-13T18:34:12.997Z,56.88
2019-05-13T18:36:44.462Z,56.95
2019-05-13T18:39:16.187Z,57.27
2019-05-13T18:41:49.446Z,57.10
2019-05-13T18:44:20.845Z,57.36
2019-05-13T18:46:52.581Z,57.20
2019-05-13T18:49:23.851Z,57.20
2019-05-13T18:51:55.177Z,56.95
2019-05-13T18:54:26.398Z,57.66
2019-05-13T18:56:57.650Z,57.92
2019-05-13T18:59:29.061Z,57.69
2019-05-13T19:02:01.518Z,58.38
2019-05-13T19:04:33.289Z,58.35
2019-05-13T19:07:07.687Z,58.69
2019-05-13T19:09:38.090Z,58.73
2019-05-13T19:12:11.637Z,58.27
2019-05-13T19:14:43.898Z,58.93
2019-05-13T19:17:15.215Z,58.78
2019-05-13T19:19:48.137Z,58.17
2019-05-13T19:22:21.427Z,57.95
2019-05-13T19:24:52.609Z,57.86
2019-05-13T19:27:24.567Z,57.32
2019-05-13T19:29:55.894Z,56.99
2019-05-13T19:32:32.207Z,57.30
2019-05-13T19:35:13.644Z,56.50
2019-05-13T19:37:45.607Z,56.08
2019-05-13T19:40:17.134Z,56.12
2019-05-13T19:42:48.517Z,54.00
2019-05-13T19:45:21.753Z,52.45
2019-05-13T19:47:53.538Z,52.53
2019-05-13T19:50:26.764Z,52.20
2019-05-13T19:52:58.587Z,52.35
2019-05-13T19:55:33.535Z,52.02
2019-05-13T19:58:04.815Z,52.15
2019-05-13T20:00:36.281Z,52.23
2019-05-13T20:03:11.540Z,52.20
2019-05-13T20:05:43.414Z,52.64
2019-05-13T20:08:14.879Z,52.48
2019-05-13T20:10:47.762Z,53.17
2019-05-13T20:13:21.656Z,53.35
2019-05-13T20:15:52.336Z,53.68
2019-05-13T20:18:26.492Z,53.81
2019-05-13T20:20:58.680Z,54.24
2019-05-13T20:23:32.292Z,54.15
2019-05-13T20:26:03.666Z,53.89
2019-05-13T20:28:35.183Z,54.15
2019-05-13T20:31:06.649Z,54.76
2019-05-13T20:33:40.159Z,53.60
2019-05-13T20:36:11.996Z,53.43
2019-05-13T20:38:44.610Z,53.93
2019-05-13T20:41:15.994Z,53.18
2019-05-13T20:43:48.225Z,53.13
2019-05-13T20:46:19.782Z,53.44
2019-05-13T20:48:52.040Z,52.99
2019-05-13T20:51:23.870Z,52.62
2019-05-13T20:53:55.549Z,51.07
2019-05-13T20:56:27.585Z,51.91
2019-05-13T20:58:59.212Z,51.38
2019-05-13T21:01:30.661Z,52.12
2019-05-13T21:04:02.380Z,52.38
2019-05-13T21:06:35.656Z,52.11
2019-05-13T21:09:13.623Z,52.82
2019-05-13T21:11:42.401Z,53.43
2019-05-13T21:14:18.095Z,53.34
2019-05-13T21:16:53.669Z,53.29
2019-05-13T21:19:27.500Z,53.55
2019-05-13T21:21:59.266Z,53.79
2019-05-13T21:24:31.925Z,53.49
2019-05-13T21:27:04.098Z,53.98
2019-05-13T21:29:37.943Z,53.53
2019-05-13T21:32:11.597Z,53.86
2019-05-13T21:34:42.689Z,54.56
2019-05-13T21:37:14.255Z,54.50
2019-05-13T21:39:47.123Z,54.61
2019-05-13T21:42:18.721Z,55.72
2019-05-13T21:44:51.421Z,55.95
2019-05-13T21:47:23.934Z,56.71
2019-05-13T21:49:55.727Z,56.84
2019-05-13T21:52:27.163Z,56.57
2019-05-13T21:54:58.675Z,56.81
2019-05-13T21:57:32.929Z,57.51
2019-05-13T22:00:14.031Z,57.52
2019-05-13T22:02:45.535Z,58.11
2019-05-13T22:05:17.194Z,58.29
2019-05-13T22:07:49.543Z,58.59
2019-05-13T22:10:21.611Z,59.12
2019-05-13T22:12:53.651Z,59.34
2019-05-13T22:15:25.281Z,59.86
2019-05-13T22:17:56.685Z,60.33
2019-05-13T22:20:28.069Z,61.05
2019-05-13T22:23:01.386Z,61.72
2019-05-13T22:25:32.893Z,61.52
2019-05-13T22:28:06.338Z,61.93
2019-05-13T22:30:38.028Z,61.81
2019-05-13T22:33:09.411Z,62.34
2019-05-13T22:35:41.768Z,62.37
2019-05-13T22:38:13.616Z,62.84
2019-05-13T22:40:45.162Z,62.66
2019-05-13T22:43:16.788Z,62.84
2019-05-13T22:45:48.151Z,63.35
2019-05-13T22:48:22.284Z,63.49
2019-05-13T22:50:54.995Z,63.57
2019-05-13T22:53:31.731Z,63.97
2019-05-13T22:56:03.360Z,63.99
2019-05-13T22:58:34.665Z,64.34
2019-05-13T23:01:06.004Z,64.29
2019-05-13T23:03:37.717Z,64.26
2019-05-13T23:06:12.081Z,64.34
2019-05-13T23:08:45.983Z,64.34
2019-05-13T23:11:17.172Z,64.84
2019-05-13T23:13:48.669Z,64.54
2019-05-13T23:16:22.095Z,64.52
2019-05-13T23:18:53.494Z,64.80
2019-05-13T23:21:25.148Z,64.86
2019-05-13T23:23:56.959Z,65.12
2019-05-13T23:26:28.365Z,65.04
2019-05-13T23:29:01.431Z,65.19
2019-05-13T23:31:33.266Z,65.12
2019-05-13T23:34:05.037Z,65.40
2019-05-13T23:36:36.361Z,65.25
2019-05-13T23:39:08.151Z,65.34
2019-05-13T23:41:41.616Z,65.77
2019-05-13T23:44:25.066Z,65.69
2019-05-13T23:46:48.217Z,65.66
2019-05-13T23:49:21.120Z,65.57
2019-05-13T23:51:52.985Z,65.68
2019-05-13T23:54:24.963Z,65.94
2019-05-13T23:56:56.541Z,65.91
2019-05-13T23:59:27.893Z,65.94
